createdAt,value
2023-01-05T00:00:25.008Z,2.30
2023-01-05T00:04:13.180Z,2.40
2023-01-05T00:07:43.441Z,2.20
2023-01-05T00:11:30.002Z,2.10
2023-01-05T00:15:31.880Z,1.60
2023-01-05T00:19:16.372Z,1.80
2023-01-05T00:22:47.456Z,1.90
2023-01-05T00:26:15.595Z,1.60
2023-01-05T00:29:42.608Z,3.10
2023-01-05T00:33:12.291Z,1.20
2023-01-05T00:36:40.406Z,1.70
2023-01-05T00:40:10.436Z,1.40
2023-01-05T00:43:37.741Z,1.60
2023-01-05T00:47:04.839Z,1.70
2023-01-05T00:50:31.761Z,1.40
2023-01-05T00:54:01.130Z,1.50
2023-01-05T00:57:28.521Z,1.20
2023-01-05T01:00:56.218Z,1.20
2023-01-05T01:04:23.591Z,1.30
2023-01-05T01:07:50.439Z,1.40
2023-01-05T01:11:17.820Z,1.40
2023-01-05T01:14:47.354Z,1.60
2023-01-05T01:18:18.673Z,1.10
2023-01-05T01:21:46.920Z,0.70
2023-01-05T01:25:14.003Z,1.10
2023-01-05T01:28:41.082Z,1.00
2023-01-05T01:32:08.832Z,1.10
2023-01-05T01:35:38.091Z,1.10
2023-01-05T01:39:05.717Z,0.90
2023-01-05T01:42:35.270Z,0.90
2023-01-05T01:46:02.232Z,0.90
2023-01-05T01:49:29.151Z,1.00
2023-01-05T01:53:02.097Z,0.90
2023-01-05T01:56:35.967Z,0.70
2023-01-05T02:00:08.030Z,0.60
2023-01-05T02:03:45.142Z,0.90
2023-01-05T02:07:17.504Z,1.00
2023-01-05T02:11:03.750Z,0.70
2023-01-05T02:14:37.238Z,1.00
2023-01-05T02:18:20.248Z,0.80
2023-01-05T02:22:00.738Z,0.90
2023-01-05T02:25:48.964Z,0.90
2023-01-05T02:29:43.365Z,1.30
2023-01-05T02:33:26.465Z,1.00
2023-01-05T02:37:03.231Z,1.90
2023-01-05T02:40:35.562Z,1.50
2023-01-05T02:44:05.061Z,1.20
2023-01-05T02:47:45.275Z,1.10
2023-01-05T02:51:17.450Z,1.60
2023-01-05T02:54:49.822Z,1.70
2023-01-05T02:58:23.716Z,1.50
2023-01-05T03:01:55.549Z,1.40
2023-01-05T03:05:27.654Z,1.20
2023-01-05T03:08:58.460Z,1.10
2023-01-05T03:12:52.583Z,1.20
2023-01-05T03:16:27.525Z,1.30
2023-01-05T03:19:57.358Z,1.00
2023-01-05T03:23:42.764Z,1.30
2023-01-05T03:27:28.290Z,1.40
2023-01-05T03:31:19.435Z,1.20
2023-01-05T03:35:10.454Z,1.20
2023-01-05T03:38:46.794Z,1.50
2023-01-05T03:42:15.741Z,1.40
2023-01-05T03:45:46.883Z,2.00
2023-01-05T03:49:21.046Z,1.60
2023-01-05T03:52:48.771Z,2.00
2023-01-05T03:56:15.755Z,1.60
2023-01-05T03:59:43.049Z,1.60
2023-01-05T04:03:10.687Z,1.70
2023-01-05T04:06:39.313Z,1.60
2023-01-05T04:13:34.708Z,1.40
2023-01-05T04:17:02.486Z,2.40
2023-01-05T04:20:29.471Z,2.00
2023-01-05T04:23:56.425Z,1.90
2023-01-05T04:27:23.678Z,2.00
2023-01-05T04:30:54.637Z,2.40
2023-01-05T04:34:23.774Z,1.80
2023-01-05T04:37:51.843Z,2.30
2023-01-05T04:41:19.170Z,2.30
2023-01-05T04:44:48.343Z,3.90
2023-01-05T04:48:15.706Z,2.10
2023-01-05T04:51:43.779Z,2.30
2023-01-05T04:55:11.800Z,2.30
2023-01-05T04:58:39.296Z,2.50
2023-01-05T05:02:06.593Z,2.30
2023-01-05T05:05:34.015Z,2.40
2023-01-05T05:09:01.385Z,2.10
2023-01-05T05:12:29.420Z,2.30
2023-01-05T05:15:56.403Z,2.20
2023-01-05T05:19:23.539Z,1.80
2023-01-05T05:22:51.516Z,2.60
2023-01-05T05:26:19.118Z,2.30
2023-01-05T05:29:47.007Z,1.60
2023-01-05T05:33:13.987Z,2.60
2023-01-05T05:36:40.893Z,1.80
2023-01-05T05:40:10.127Z,2.20
2023-01-05T05:43:37.597Z,2.00
2023-01-05T05:47:05.028Z,1.90
2023-01-05T05:50:31.934Z,1.70
2023-01-05T05:54:05.848Z,1.90
2023-01-05T05:57:32.847Z,1.60
2023-01-05T06:01:02.859Z,2.00
2023-01-05T06:04:30.380Z,1.60
2023-01-05T06:07:57.391Z,1.40
2023-01-05T06:11:24.362Z,2.70
2023-01-05T06:14:51.588Z,1.20
2023-01-05T06:18:22.129Z,1.60
2023-01-05T06:21:49.022Z,2.00
2023-01-05T06:25:16.105Z,2.70
2023-01-05T06:28:43.201Z,2.60
2023-01-05T06:32:10.544Z,1.80
2023-01-05T06:35:37.447Z,2.30
2023-01-05T06:39:04.551Z,2.00
2023-01-05T06:42:32.292Z,2.50
2023-01-05T06:46:00.711Z,3.00
2023-01-05T06:49:28.123Z,3.20
2023-01-05T06:52:54.957Z,2.50
2023-01-05T06:56:21.811Z,3.30
2023-01-05T06:59:49.428Z,3.00
2023-01-05T07:03:16.961Z,2.60
2023-01-05T07:06:44.503Z,3.30
2023-01-05T07:10:12.601Z,2.20
2023-01-05T07:13:39.601Z,2.40
2023-01-05T07:17:06.553Z,2.70
2023-01-05T07:20:36.695Z,2.20
2023-01-05T07:24:04.533Z,4.90
2023-01-05T07:27:31.905Z,3.60
2023-01-05T07:30:59.267Z,7.40
2023-01-05T07:34:26.615Z,5.90
2023-01-05T07:37:53.624Z,4.60
2023-01-05T07:41:22.776Z,3.70
2023-01-05T07:44:49.640Z,3.40
2023-01-05T07:48:23.413Z,3.50
2023-01-05T07:51:50.614Z,2.40
2023-01-05T07:55:17.774Z,2.20
2023-01-05T07:58:47.871Z,1.40
2023-01-05T08:02:15.182Z,1.70
2023-01-05T08:05:42.635Z,1.90
2023-01-05T08:09:27.185Z,2.00
2023-01-05T08:13:11.924Z,1.80
2023-01-05T08:16:38.842Z,2.30
2023-01-05T08:20:06.624Z,3.30
2023-01-05T08:23:34.731Z,2.60
2023-01-05T08:27:01.808Z,2.80
2023-01-05T08:30:28.960Z,2.20
2023-01-05T08:34:00.150Z,1.90
2023-01-05T08:37:27.447Z,1.20
2023-01-05T08:40:55.075Z,1.50
2023-01-05T08:44:22.846Z,1.60
2023-01-05T08:47:49.709Z,1.40
2023-01-05T08:51:19.366Z,1.50
2023-01-05T08:54:46.611Z,1.70
2023-01-05T08:58:13.839Z,1.30
2023-01-05T09:01:41.238Z,1.40
2023-01-05T09:05:11.418Z,2.10
2023-01-05T09:12:09.287Z,1.00
2023-01-05T09:15:37.496Z,2.00
2023-01-05T09:19:04.536Z,2.10
2023-01-05T09:22:31.467Z,2.00
2023-01-05T09:26:00.543Z,1.90
2023-01-05T09:29:28.691Z,1.30
2023-01-05T09:32:55.771Z,1.40
2023-01-05T09:36:25.719Z,2.30
2023-01-05T09:43:27.031Z,2.00
2023-01-05T09:46:55.366Z,1.50
2023-01-05T09:50:25.354Z,2.20
2023-01-05T09:57:21.718Z,1.90
2023-01-05T10:01:03.397Z,1.80
2023-01-05T10:04:33.187Z,1.50
2023-01-05T10:08:05.222Z,1.70
2023-01-05T10:11:58.294Z,1.90
2023-01-05T10:15:25.963Z,1.50
2023-01-05T10:18:54.492Z,2.10
2023-01-05T10:22:38.837Z,1.60
2023-01-05T10:26:18.174Z,2.60
2023-01-05T10:29:47.613Z,1.40
2023-01-05T10:33:32.098Z,1.20
2023-01-05T10:37:22.733Z,1.40
2023-01-05T10:41:06.018Z,1.00
2023-01-05T10:44:56.868Z,0.80
2023-01-05T10:48:30.243Z,1.40
2023-01-05T10:52:00.214Z,0.70
2023-01-05T10:55:29.547Z,0.70
2023-01-05T10:59:10.800Z,1.10
2023-01-05T11:02:41.133Z,0.90
2023-01-05T11:06:10.280Z,1.60
2023-01-05T11:09:42.976Z,1.00
2023-01-05T11:13:30.693Z,1.10
2023-01-05T11:17:04.766Z,1.00
2023-01-05T11:20:38.297Z,0.80
2023-01-05T11:24:26.469Z,1.20
2023-01-05T11:28:10.291Z,1.80
2023-01-05T11:31:43.083Z,0.90
2023-01-05T11:35:22.628Z,1.10
2023-01-05T11:38:55.759Z,1.50
2023-01-05T11:42:31.868Z,1.30
2023-01-05T11:46:03.449Z,1.60
2023-01-05T11:49:30.936Z,9.30
2023-01-05T11:53:00.130Z,2.00
2023-01-05T11:56:27.873Z,1.90
2023-01-05T11:59:58.543Z,1.30
2023-01-05T12:03:39.859Z,2.10
2023-01-05T12:07:22.553Z,1.40
2023-01-05T12:11:03.839Z,1.00
2023-01-05T12:14:50.104Z,1.20
2023-01-05T12:18:30.966Z,1.10
2023-01-05T12:22:20.301Z,2.00
2023-01-05T12:26:01.936Z,2.30
2023-01-05T12:31:06.828Z,1.30
2023-01-05T12:34:02.298Z,3.20
2023-01-05T12:37:44.349Z,2.00
2023-01-05T12:41:31.303Z,2.40
2023-01-05T12:45:16.071Z,1.90
2023-01-05T12:48:48.225Z,2.00
2023-01-05T12:52:21.585Z,4.20
2023-01-05T12:55:53.759Z,2.80
2023-01-05T12:59:26.372Z,2.60
2023-01-05T13:02:59.733Z,1.80
2023-01-05T13:06:28.576Z,1.60
2023-01-05T13:10:03.285Z,1.90
2023-01-05T13:13:35.563Z,1.40
2023-01-05T13:17:05.798Z,1.10
2023-01-05T13:20:40.927Z,1.60
2023-01-05T13:24:14.398Z,1.50
2023-01-05T13:27:41.351Z,1.40
2023-01-05T13:31:26.760Z,1.30
2023-01-05T13:35:22.462Z,1.20
2023-01-05T13:39:28.608Z,1.20
2023-01-05T13:43:13.620Z,0.80
2023-01-05T13:47:00.900Z,0.90
2023-01-05T13:50:58.751Z,1.30
2023-01-05T13:54:49.177Z,1.40
2023-01-05T13:58:41.473Z,1.60
2023-01-05T14:02:28.588Z,1.30
2023-01-05T14:05:58.467Z,1.90
2023-01-05T14:12:58.303Z,1.70
2023-01-05T14:16:55.807Z,2.10
2023-01-05T14:20:42.080Z,1.20
2023-01-05T14:24:31.516Z,2.00
2023-01-05T14:28:20.767Z,22.00
2023-01-05T14:31:53.774Z,29.70
2023-01-05T14:35:29.967Z,39.50
2023-01-05T14:38:58.055Z,45.50
2023-01-05T14:42:32.637Z,28.90
2023-01-05T14:46:07.053Z,16.50
2023-01-05T14:49:38.447Z,9.90
2023-01-05T14:53:13.887Z,16.00
2023-01-05T14:56:41.196Z,28.70
2023-01-05T15:00:16.800Z,14.10
2023-01-05T15:03:49.871Z,12.50
2023-01-05T15:11:32.561Z,5.10
2023-01-05T15:15:40.915Z,3.40
2023-01-05T15:19:43.148Z,3.60
2023-01-05T15:23:26.483Z,2.20
2023-01-05T15:27:11.386Z,2.00
2023-01-05T15:31:11.449Z,2.70
2023-01-05T15:34:43.172Z,4.00
2023-01-05T15:38:31.108Z,5.40
2023-01-05T15:42:02.747Z,3.50
2023-01-05T15:45:32.356Z,2.80
2023-01-05T15:49:02.360Z,2.40
2023-01-05T15:52:35.367Z,2.80
2023-01-05T15:56:03.314Z,2.00
2023-01-05T15:59:39.528Z,2.60
2023-01-05T16:03:23.134Z,2.70
2023-01-05T16:07:00.509Z,3.20
2023-01-05T16:10:32.436Z,4.20
2023-01-05T16:14:03.926Z,14.90
2023-01-05T16:17:33.279Z,14.10
2023-01-05T16:21:07.240Z,24.50
2023-01-05T16:24:43.322Z,14.50
2023-01-05T16:28:21.271Z,13.60
2023-01-05T16:31:55.794Z,16.30
2023-01-05T16:35:35.400Z,15.70
2023-01-05T16:42:52.360Z,11.40
2023-01-05T16:46:35.447Z,7.50
2023-01-05T16:50:10.231Z,6.90
2023-01-05T16:53:42.186Z,7.30
2023-01-05T16:57:40.927Z,4.60
2023-01-05T17:01:28.064Z,3.40
2023-01-05T17:04:55.617Z,4.40
2023-01-05T17:08:30.465Z,4.40
2023-01-05T17:12:00.599Z,3.80
2023-01-05T17:15:30.741Z,3.10
2023-01-05T17:19:00.872Z,3.20
2023-01-05T17:22:30.840Z,2.60
2023-01-05T17:26:01.565Z,3.40
2023-01-05T17:29:30.680Z,6.40
2023-01-05T17:33:03.007Z,4.70
2023-01-05T17:36:34.009Z,12.70
2023-01-05T17:40:01.604Z,11.10
2023-01-05T17:43:29.204Z,14.60
2023-01-05T17:46:56.515Z,19.50
2023-01-05T17:50:26.850Z,9.30
2023-01-05T17:53:54.327Z,6.70
2023-01-05T17:57:22.197Z,4.50
2023-01-05T18:00:50.994Z,5.90
2023-01-05T18:04:20.164Z,3.30
2023-01-05T18:07:49.623Z,4.00
2023-01-05T18:14:45.989Z,8.70
2023-01-05T18:18:14.864Z,4.10
2023-01-05T18:25:16.503Z,3.10
2023-01-05T18:28:44.254Z,4.90
2023-01-05T18:32:12.690Z,4.70
2023-01-05T18:35:44.017Z,3.30
2023-01-05T18:39:11.987Z,5.60
2023-01-05T18:42:40.931Z,9.10
2023-01-05T18:46:09.405Z,14.00
2023-01-05T18:49:37.779Z,6.40
2023-01-05T18:53:05.939Z,4.10
2023-01-05T18:56:34.837Z,3.90
2023-01-05T19:00:03.942Z,6.40
2023-01-05T19:03:31.758Z,8.40
2023-01-05T19:06:59.420Z,3.20
2023-01-05T19:10:27.186Z,3.80
2023-01-05T19:13:57.941Z,3.10
2023-01-05T19:17:25.646Z,2.90
2023-01-05T19:21:00.317Z,4.10
2023-01-05T19:24:29.152Z,4.60
2023-01-05T19:27:56.752Z,3.20
2023-01-05T19:31:25.008Z,3.10
2023-01-05T19:34:54.055Z,3.70
2023-01-05T19:38:23.247Z,4.20
2023-01-05T19:41:52.772Z,8.20
2023-01-05T19:48:49.324Z,3.10
2023-01-05T19:52:17.749Z,2.50
2023-01-05T19:55:46.936Z,2.90
2023-01-05T19:59:21.566Z,2.70
2023-01-05T20:02:50.556Z,3.70
2023-01-05T20:06:22.194Z,3.40
2023-01-05T20:09:52.931Z,4.00
2023-01-05T20:13:21.089Z,3.30
2023-01-05T20:16:51.874Z,3.00
2023-01-05T20:20:20.382Z,2.50
2023-01-05T20:23:48.168Z,4.70
2023-01-05T20:27:18.883Z,10.60
2023-01-05T20:30:48.418Z,3.80
2023-01-05T20:34:21.221Z,3.20
2023-01-05T20:37:50.775Z,3.10
2023-01-05T20:41:23.979Z,3.00
2023-01-05T20:44:53.396Z,7.60
2023-01-05T20:48:22.593Z,11.80
2023-01-05T20:51:52.135Z,5.00
2023-01-05T20:55:22.259Z,3.40
2023-01-05T20:58:52.396Z,3.70
2023-01-05T21:02:24.642Z,3.00
2023-01-05T21:05:53.724Z,4.20
2023-01-05T21:09:23.507Z,6.40
2023-01-05T21:16:21.328Z,3.90
2023-01-05T21:19:50.565Z,3.10
2023-01-05T21:23:19.367Z,3.80
2023-01-05T21:26:48.225Z,3.10
2023-01-05T21:30:17.491Z,3.80
2023-01-05T21:33:46.886Z,3.70
2023-01-05T21:37:15.327Z,3.90
2023-01-05T21:40:43.332Z,3.20
2023-01-05T21:44:13.669Z,3.30
2023-01-05T21:47:41.416Z,3.30
2023-01-05T21:51:27.972Z,4.80
2023-01-05T21:55:27.372Z,4.00
2023-01-05T21:58:55.139Z,3.20
2023-01-05T22:02:22.317Z,4.00
2023-01-05T22:05:51.849Z,3.70
2023-01-05T22:09:18.811Z,4.10
2023-01-05T22:12:45.848Z,3.70
2023-01-05T22:16:13.179Z,3.60
2023-01-05T22:19:40.137Z,4.50
2023-01-05T22:23:07.433Z,3.90
2023-01-05T22:26:34.295Z,3.90
2023-01-05T22:30:01.153Z,3.80
2023-01-05T22:33:28.265Z,4.60
2023-01-05T22:36:55.321Z,4.60
2023-01-05T22:40:22.303Z,5.40
2023-01-05T22:43:50.218Z,5.50
2023-01-05T22:47:17.214Z,4.90
2023-01-05T22:50:44.256Z,4.80
2023-01-05T22:54:11.445Z,5.70
2023-01-05T22:57:38.312Z,10.20
2023-01-05T23:01:11.716Z,5.90
2023-01-05T23:04:38.633Z,5.10
2023-01-05T23:08:06.003Z,5.00
2023-01-05T23:11:35.135Z,5.60
2023-01-05T23:15:02.047Z,15.60
2023-01-05T23:18:29.556Z,7.90
2023-01-05T23:21:56.520Z,7.00
2023-01-05T23:25:23.476Z,6.40
2023-01-05T23:28:51.125Z,4.30
2023-01-05T23:32:18.181Z,5.50
2023-01-05T23:35:46.889Z,7.50
2023-01-05T23:39:14.288Z,10.30
2023-01-05T23:42:47.478Z,6.30
2023-01-05T23:46:17.669Z,6.00
2023-01-05T23:49:44.957Z,5.10
2023-01-05T23:53:12.782Z,6.20
2023-01-05T23:56:39.920Z,10.70
